Airfield :
LOGIN :

Register | Disclaimer

   EN    FR    IT 

 










Legend :    VFR   Marginal VFR   IFR   Intensive IFR   Very Intensive IFR
Visi :
Ceiling :
>= 8 km
>= 3000ft
5 to 8 km
1000 to 3000 ft
1500m to 5 km
500 to 1000 ft
800 to 1500m
200 to 500 ft
< 800m
< 200 ft
Symbols :   Thunderstorms  Fog  Heavy snow  Heavy precipitations  Wind > 20 kt
SIGMETs :     Misc.  Thunderstorms  Icing  Turbulence  Mountain Waves  Volcanic Ashes






- Airport Elevation : 1345 ft
- IATA code : FRZ


ETHF - Fritzlar

CURRENT METAR :
  • 291120Z 13004KT 9999 FEW020 BKN240 11/07 Q1003 BLU+BLU+

EXPIRED METARs :
  • 291020Z 09002KT 9999 VCFG SCT005 09/08 Q1003 BLU+BLU+
  • 291008Z 06001KT 9999 VCFG BKN003 08/07 Q1003 YLO YLO BECMG BLU
  • 290950Z 08002KT 5000 BR BKN003 07/07 Q1003 YLO YLO BECMG BLU
  • 290940Z 24001KT 4000 BR BKN003 07/07 Q1003 YLO YLO BECMG BLU
  • 290927Z VRB02KT 1500 R30/5000N VCFG BR BKN002 07/06 Q1003 AMB AMB BECMG BLU+

TAF TAF ETHF
Valid from the 29 at 11:00 until the 29 at 20:00 UTC


291020Z 2911/2920 22005KT 9999 NSW SCT015



MET'MAP, your aeronautical weather chart ! - Copyright ORBIFLY December 2007 - Disclaimer

ORBIFLY MET'MAP TEAM :

Programming & Development : Alexandra Zaïnal
Original concept : Baudouin d'Aumeries
Technical & hardware support : Manuel Goepfert
Assistance : Marc-Olivier Méhu




SOURCES & CREDITS :

   NOAA